createdAt,value
2023-05-19T00:01:18.564Z,99.90
2023-05-19T00:03:21.904Z,99.90
2023-05-19T00:05:24.997Z,99.90
2023-05-19T00:07:32.617Z,99.90
2023-05-19T00:09:34.846Z,99.90
2023-05-19T00:11:38.525Z,99.90
2023-05-19T00:13:41.055Z,99.90
2023-05-19T00:15:43.193Z,99.90
2023-05-19T00:17:45.543Z,99.90
2023-05-19T00:19:48.011Z,99.90
2023-05-19T00:21:50.047Z,99.90
2023-05-19T00:23:52.159Z,99.90
2023-05-19T00:25:54.154Z,99.90
2023-05-19T00:27:56.161Z,99.90
2023-05-19T00:29:57.936Z,99.90
2023-05-19T00:31:59.868Z,99.90
2023-05-19T00:34:02.075Z,99.90
2023-05-19T00:36:04.478Z,99.90
2023-05-19T00:38:06.762Z,99.90
2023-05-19T00:40:10.128Z,99.90
2023-05-19T00:42:12.004Z,99.90
2023-05-19T00:44:13.880Z,99.90
2023-05-19T00:46:15.874Z,99.90
2023-05-19T00:48:17.738Z,99.90
2023-05-19T00:50:19.752Z,99.90
2023-05-19T00:52:21.590Z,99.90
2023-05-19T00:54:24.262Z,99.90
2023-05-19T00:56:26.772Z,99.90
2023-05-19T00:58:30.757Z,99.90
2023-05-19T01:00:33.155Z,99.90
2023-05-19T01:02:35.620Z,99.90
2023-05-19T01:04:39.614Z,99.90
2023-05-19T01:06:41.840Z,99.90
2023-05-19T01:08:43.749Z,99.90
2023-05-19T01:10:45.757Z,99.90
2023-05-19T01:12:48.226Z,99.90
2023-05-19T01:14:50.288Z,99.90
2023-05-19T01:17:12.457Z,99.90
2023-05-19T01:19:25.569Z,99.90
2023-05-19T01:22:06.938Z,99.90
2023-05-19T01:24:46.948Z,99.90
2023-05-19T01:27:25.828Z,99.90
2023-05-19T01:29:48.306Z,99.90
2023-05-19T01:31:50.649Z,99.90
2023-05-19T01:33:54.350Z,99.90
2023-05-19T01:35:58.051Z,99.90
2023-05-19T01:38:01.546Z,99.90
2023-05-19T01:40:04.093Z,99.90
2023-05-19T01:42:06.737Z,99.90
2023-05-19T01:44:09.864Z,99.90
2023-05-19T01:46:12.489Z,99.90
2023-05-19T01:48:15.492Z,99.90
2023-05-19T01:50:17.472Z,99.90
2023-05-19T01:52:19.436Z,99.90
2023-05-19T01:54:21.650Z,99.90
2023-05-19T01:56:46.686Z,99.90
2023-05-19T01:58:56.055Z,99.90
2023-05-19T02:01:36.026Z,99.90
2023-05-19T02:03:59.230Z,99.90
2023-05-19T02:06:19.910Z,99.90
2023-05-19T02:08:51.691Z,99.90
2023-05-19T02:11:02.866Z,99.90
2023-05-19T02:13:09.144Z,99.90
2023-05-19T02:15:15.195Z,99.90
2023-05-19T02:17:20.426Z,99.90
2023-05-19T02:19:28.629Z,99.90
2023-05-19T02:21:31.354Z,99.90
2023-05-19T02:23:33.448Z,99.90
2023-05-19T02:25:35.609Z,99.90
2023-05-19T02:27:38.803Z,99.90
2023-05-19T02:29:40.741Z,99.90
2023-05-19T02:31:42.697Z,99.90
2023-05-19T02:33:44.687Z,99.90
2023-05-19T02:35:46.637Z,99.90
2023-05-19T02:37:48.570Z,99.90
2023-05-19T02:39:50.640Z,99.90
2023-05-19T02:41:52.450Z,99.90
2023-05-19T02:43:54.482Z,99.90
2023-05-19T02:45:56.410Z,99.90
2023-05-19T02:47:59.678Z,99.90
2023-05-19T02:50:01.642Z,99.90
2023-05-19T02:52:04.416Z,99.90
2023-05-19T02:54:06.446Z,99.90
2023-05-19T02:56:08.415Z,99.90
2023-05-19T02:58:10.917Z,99.90
2023-05-19T03:00:13.318Z,99.90
2023-05-19T03:02:15.605Z,99.90
2023-05-19T03:04:20.177Z,99.90
2023-05-19T03:06:24.374Z,99.90
2023-05-19T03:08:26.334Z,99.90
2023-05-19T03:10:28.293Z,99.90
2023-05-19T03:12:30.599Z,99.90
2023-05-19T03:14:33.643Z,99.90
2023-05-19T03:16:36.050Z,99.90
2023-05-19T03:18:40.800Z,99.90
2023-05-19T03:20:44.664Z,99.90
2023-05-19T03:22:46.689Z,99.90
2023-05-19T03:24:51.098Z,99.90
2023-05-19T03:26:53.092Z,99.90
2023-05-19T03:28:55.165Z,99.90
2023-05-19T03:30:56.934Z,99.90
2023-05-19T03:32:58.933Z,99.90
2023-05-19T03:35:00.921Z,99.90
2023-05-19T03:37:02.824Z,99.90
2023-05-19T03:39:04.869Z,99.90
2023-05-19T03:41:06.706Z,99.90
2023-05-19T03:43:08.739Z,99.90
2023-05-19T03:45:10.769Z,99.90
2023-05-19T03:47:12.750Z,99.90
2023-05-19T03:49:15.097Z,99.90
2023-05-19T03:51:17.003Z,99.90
2023-05-19T03:53:18.972Z,99.90
2023-05-19T03:55:21.350Z,99.90
2023-05-19T03:57:23.458Z,99.90
2023-05-19T03:59:25.310Z,99.90
2023-05-19T04:01:27.292Z,99.90
2023-05-19T04:03:29.178Z,99.90
2023-05-19T04:05:31.206Z,99.90
2023-05-19T04:07:33.044Z,99.90
2023-05-19T04:09:35.603Z,99.90
2023-05-19T04:11:39.068Z,99.90
2023-05-19T04:13:40.969Z,99.90
2023-05-19T04:15:42.941Z,99.90
2023-05-19T04:17:44.912Z,99.90
2023-05-19T04:19:46.929Z,99.90
2023-05-19T04:21:48.742Z,99.90
2023-05-19T04:23:50.830Z,99.90
2023-05-19T04:25:54.198Z,99.90
2023-05-19T04:27:57.897Z,99.90
2023-05-19T04:29:59.894Z,99.90
2023-05-19T04:32:06.859Z,99.90
2023-05-19T04:34:08.823Z,99.90
2023-05-19T04:36:11.528Z,99.90
2023-05-19T04:38:13.725Z,99.90
2023-05-19T04:40:16.059Z,99.90
2023-05-19T04:42:19.548Z,99.90
2023-05-19T04:44:21.502Z,99.90
2023-05-19T04:46:24.637Z,99.90
2023-05-19T04:48:27.488Z,99.90
2023-05-19T04:50:31.152Z,99.90
2023-05-19T04:52:33.938Z,99.90
2023-05-19T04:54:36.036Z,99.90
2023-05-19T04:56:37.911Z,99.90
2023-05-19T04:58:41.830Z,99.90
2023-05-19T05:00:43.907Z,99.90
2023-05-19T05:02:45.868Z,99.90
2023-05-19T05:04:48.247Z,99.90
2023-05-19T05:06:50.589Z,99.90
2023-05-19T05:08:52.805Z,99.90
2023-05-19T05:10:55.034Z,99.90
2023-05-19T05:12:57.244Z,99.90
2023-05-19T05:14:59.306Z,99.90
2023-05-19T05:17:01.601Z,99.90
2023-05-19T05:19:05.179Z,99.90
2023-05-19T05:21:07.983Z,99.90
2023-05-19T05:23:14.504Z,99.90
2023-05-19T05:25:17.224Z,99.90
2023-05-19T05:27:19.173Z,99.90
2023-05-19T05:29:21.351Z,99.90
2023-05-19T05:31:23.261Z,99.90
2023-05-19T05:33:25.342Z,99.90
2023-05-19T05:35:27.733Z,99.90
2023-05-19T05:37:30.831Z,99.90
2023-05-19T05:39:32.707Z,99.90
2023-05-19T05:41:37.577Z,99.90
2023-05-19T05:43:39.626Z,99.90
2023-05-19T05:45:41.562Z,99.90
2023-05-19T05:47:43.576Z,99.90
2023-05-19T05:49:48.215Z,99.90
2023-05-19T05:52:05.156Z,99.90
2023-05-19T05:54:10.123Z,99.90
2023-05-19T05:56:12.814Z,99.90
2023-05-19T05:58:15.106Z,99.90
2023-05-19T06:00:17.570Z,99.90
2023-05-19T06:02:19.735Z,99.90
2023-05-19T06:04:21.731Z,99.90
2023-05-19T06:06:23.520Z,99.90
2023-05-19T06:08:25.407Z,99.90
2023-05-19T06:10:28.652Z,99.90
2023-05-19T06:12:30.576Z,99.90
2023-05-19T06:14:32.363Z,99.90
2023-05-19T06:16:34.340Z,99.90
2023-05-19T06:18:36.394Z,99.90
2023-05-19T06:20:38.191Z,99.90
2023-05-19T06:22:40.079Z,99.90
2023-05-19T06:24:41.985Z,99.90
2023-05-19T06:26:44.073Z,99.90
2023-05-19T06:28:45.962Z,99.90
2023-05-19T06:30:47.846Z,99.90
2023-05-19T06:32:49.597Z,99.90
2023-05-19T06:34:54.362Z,99.90
2023-05-19T06:36:56.268Z,99.90
2023-05-19T06:38:58.847Z,99.90
2023-05-19T06:41:01.514Z,99.90
2023-05-19T06:43:04.882Z,99.90
2023-05-19T06:45:07.430Z,99.90
2023-05-19T06:47:09.394Z,99.90
2023-05-19T06:49:11.290Z,99.90
2023-05-19T06:51:13.223Z,99.90
2023-05-19T06:53:15.022Z,99.90
2023-05-19T06:55:17.061Z,99.90
2023-05-19T06:57:19.022Z,99.90
2023-05-19T06:59:22.613Z,99.90
2023-05-19T07:01:26.640Z,99.90
2023-05-19T07:03:28.777Z,99.90
2023-05-19T07:05:31.014Z,99.90
2023-05-19T07:07:32.922Z,99.90
2023-05-19T07:09:35.107Z,99.90
2023-05-19T07:11:37.032Z,99.90
2023-05-19T07:13:38.801Z,99.90
2023-05-19T07:15:40.976Z,99.90
2023-05-19T07:17:42.899Z,99.90
2023-05-19T07:19:45.016Z,99.90
2023-05-19T07:21:47.387Z,98.60
2023-05-19T07:23:49.290Z,98.00
2023-05-19T07:25:54.229Z,98.40
2023-05-19T07:27:56.897Z,96.70
2023-05-19T07:29:59.028Z,97.00
2023-05-19T07:32:01.104Z,97.50
2023-05-19T07:34:03.329Z,96.70
2023-05-19T07:36:05.329Z,96.60
2023-05-19T07:38:07.565Z,95.90
2023-05-19T07:40:10.389Z,96.00
2023-05-19T07:42:12.367Z,95.30
2023-05-19T07:44:14.531Z,94.90
2023-05-19T07:46:16.558Z,95.40
2023-05-19T07:48:18.889Z,95.30
2023-05-19T07:50:20.968Z,94.80
2023-05-19T07:52:22.933Z,95.20
2023-05-19T07:54:24.973Z,94.60
2023-05-19T07:56:27.415Z,94.00
2023-05-19T07:58:29.489Z,94.90
2023-05-19T08:00:31.666Z,95.10
2023-05-19T08:02:34.329Z,92.90
2023-05-19T08:04:36.558Z,93.60
2023-05-19T08:06:38.685Z,93.60
2023-05-19T08:08:40.714Z,93.50
2023-05-19T08:10:43.213Z,93.20
2023-05-19T08:12:45.166Z,92.40
2023-05-19T08:14:47.107Z,91.40
2023-05-19T08:16:50.786Z,91.30
2023-05-19T08:18:52.688Z,92.10
2023-05-19T08:20:54.610Z,91.10
2023-05-19T08:22:56.556Z,91.00
2023-05-19T08:24:58.435Z,91.00
2023-05-19T08:27:00.251Z,90.90
2023-05-19T08:29:02.192Z,91.20
2023-05-19T08:31:04.162Z,90.50
2023-05-19T08:33:06.588Z,90.00
2023-05-19T08:35:09.123Z,89.70
2023-05-19T08:37:11.945Z,90.10
2023-05-19T08:39:16.304Z,90.20
2023-05-19T08:41:18.518Z,90.40
2023-05-19T08:43:20.490Z,87.30
2023-05-19T08:45:22.498Z,87.00
2023-05-19T08:47:25.148Z,86.30
2023-05-19T08:49:28.676Z,85.90
2023-05-19T08:51:33.452Z,84.60
2023-05-19T08:53:40.487Z,83.40
2023-05-19T08:56:01.502Z,84.30
2023-05-19T08:58:05.123Z,85.10
2023-05-19T09:00:12.202Z,85.60
2023-05-19T09:02:14.879Z,82.20
2023-05-19T09:04:17.564Z,82.70
2023-05-19T09:06:19.660Z,80.30
2023-05-19T09:08:22.690Z,81.50
2023-05-19T09:10:24.821Z,81.70
2023-05-19T09:12:27.641Z,80.80
2023-05-19T09:14:30.796Z,81.80
2023-05-19T09:16:34.149Z,80.90
2023-05-19T09:18:41.018Z,82.70
2023-05-19T09:20:44.506Z,84.10
2023-05-19T09:22:47.513Z,83.50
2023-05-19T09:24:49.791Z,82.90
2023-05-19T09:26:57.939Z,85.00
2023-05-19T09:29:02.372Z,83.90
2023-05-19T09:31:09.167Z,78.90
2023-05-19T09:33:11.617Z,78.70
2023-05-19T09:35:14.022Z,77.10
2023-05-19T09:37:16.021Z,78.30
2023-05-19T09:39:19.597Z,78.90
2023-05-19T09:41:23.298Z,79.30
2023-05-19T09:43:30.105Z,80.00
2023-05-19T09:45:32.219Z,79.50
2023-05-19T09:47:38.430Z,81.00
2023-05-19T09:49:47.703Z,81.40
2023-05-19T09:51:59.780Z,81.50
2023-05-19T09:54:02.145Z,81.20
2023-05-19T09:56:04.274Z,82.70
2023-05-19T09:58:07.390Z,80.40
2023-05-19T10:00:19.660Z,79.10
2023-05-19T10:02:24.524Z,78.50
2023-05-19T10:04:28.778Z,78.00
2023-05-19T10:06:31.914Z,78.30
2023-05-19T10:08:34.797Z,78.00
2023-05-19T10:10:38.657Z,79.10
2023-05-19T10:12:41.028Z,81.00
2023-05-19T10:14:42.976Z,77.90
2023-05-19T10:16:45.992Z,77.10
2023-05-19T10:18:49.954Z,78.10
2023-05-19T10:20:52.705Z,77.90
2023-05-19T10:22:54.617Z,75.90
2023-05-19T10:24:56.577Z,76.20
2023-05-19T10:27:03.719Z,76.90
2023-05-19T10:29:05.907Z,77.80
2023-05-19T10:31:12.194Z,76.70
2023-05-19T10:33:17.442Z,76.30
2023-05-19T10:35:33.716Z,77.00
2023-05-19T10:37:57.020Z,78.20
2023-05-19T10:39:59.445Z,77.40
2023-05-19T10:42:25.809Z,76.50
2023-05-19T10:45:04.648Z,76.40
2023-05-19T10:47:08.610Z,76.50
2023-05-19T10:49:10.683Z,75.70
2023-05-19T10:51:14.670Z,77.00
2023-05-19T10:53:22.219Z,77.30
2023-05-19T10:55:49.908Z,77.90
2023-05-19T10:57:58.390Z,78.10
2023-05-19T11:00:11.737Z,78.80
2023-05-19T11:02:42.976Z,77.50
2023-05-19T11:04:54.157Z,78.40
2023-05-19T11:06:57.870Z,79.00
2023-05-19T11:09:19.457Z,78.60
2023-05-19T11:11:23.468Z,77.40
2023-05-19T11:15:34.347Z,75.80
2023-05-19T11:17:36.573Z,76.10
2023-05-19T11:19:38.506Z,74.00
2023-05-19T11:21:52.628Z,74.70
2023-05-19T11:23:57.109Z,74.30
2023-05-19T11:26:02.455Z,75.80
2023-05-19T11:28:05.573Z,76.40
2023-05-19T11:30:18.714Z,74.90
2023-05-19T11:32:22.775Z,73.70
2023-05-19T11:34:26.001Z,75.10
2023-05-19T11:36:29.187Z,75.70
2023-05-19T11:38:32.437Z,75.50
2023-05-19T11:40:34.425Z,76.40
2023-05-19T11:42:37.229Z,76.10
2023-05-19T11:44:41.180Z,76.90
2023-05-19T11:46:43.939Z,74.70
2023-05-19T11:48:48.500Z,75.00
2023-05-19T11:50:51.071Z,73.50
2023-05-19T11:52:53.810Z,73.60
2023-05-19T11:54:56.961Z,72.50
2023-05-19T11:57:03.447Z,73.60
2023-05-19T11:59:05.390Z,73.40
2023-05-19T12:01:07.489Z,73.50
2023-05-19T12:03:09.952Z,74.10
2023-05-19T12:05:22.542Z,74.90
2023-05-19T12:07:26.084Z,72.50
2023-05-19T12:09:28.934Z,72.10
2023-05-19T12:11:31.888Z,73.60
2023-05-19T12:13:33.994Z,73.00
2023-05-19T12:15:36.586Z,73.90
2023-05-19T12:17:38.525Z,73.80
2023-05-19T12:19:45.175Z,74.10
2023-05-19T12:21:47.200Z,73.50
2023-05-19T12:23:49.447Z,70.80
2023-05-19T12:25:51.902Z,72.20
2023-05-19T12:27:58.504Z,72.60
2023-05-19T12:30:00.675Z,72.90
2023-05-19T12:32:03.113Z,73.70
2023-05-19T12:34:05.313Z,73.60
2023-05-19T12:36:08.632Z,72.30
2023-05-19T12:38:10.602Z,71.80
2023-05-19T12:40:17.137Z,72.50
2023-05-19T12:42:19.683Z,72.40
2023-05-19T12:44:21.621Z,71.30
2023-05-19T12:46:23.824Z,71.10
2023-05-19T12:48:25.904Z,69.60
2023-05-19T12:50:31.632Z,69.80
2023-05-19T12:52:48.920Z,70.70
2023-05-19T12:54:58.184Z,68.90
2023-05-19T12:57:00.275Z,71.20
2023-05-19T12:59:02.251Z,69.10
2023-05-19T13:01:04.308Z,70.30
2023-05-19T13:03:08.555Z,71.50
2023-05-19T13:05:10.568Z,95.90
2023-05-19T13:07:12.535Z,99.90
2023-05-19T13:09:16.424Z,99.90
2023-05-19T13:11:19.212Z,99.90
2023-05-19T13:13:22.063Z,99.90
2023-05-19T13:15:29.417Z,99.90
2023-05-19T13:17:31.389Z,99.90
2023-05-19T13:19:33.229Z,99.90
2023-05-19T13:21:35.677Z,99.90
2023-05-19T13:23:37.811Z,99.90
2023-05-19T13:25:40.516Z,99.90
2023-05-19T13:27:42.717Z,99.90
2023-05-19T13:29:44.669Z,99.90
2023-05-19T13:31:46.582Z,99.90
2023-05-19T13:33:48.333Z,99.90
2023-05-19T13:35:50.627Z,99.90
2023-05-19T13:37:52.709Z,99.90
2023-05-19T13:39:54.839Z,99.90
2023-05-19T13:41:58.527Z,99.90
2023-05-19T13:44:01.241Z,99.90
2023-05-19T13:46:03.199Z,99.90
2023-05-19T13:48:07.499Z,99.90
2023-05-19T13:50:09.888Z,99.90
2023-05-19T13:52:11.829Z,99.90
2023-05-19T13:54:13.725Z,99.90
2023-05-19T13:56:15.724Z,99.90
2023-05-19T13:58:18.033Z,99.90
2023-05-19T14:00:20.109Z,99.90
2023-05-19T14:02:22.048Z,99.90
2023-05-19T14:04:24.678Z,99.90
2023-05-19T14:06:27.940Z,99.90
2023-05-19T14:08:29.900Z,99.90
2023-05-19T14:10:31.950Z,99.90
2023-05-19T14:12:44.845Z,99.90
2023-05-19T14:14:54.063Z,99.90
2023-05-19T14:16:56.256Z,99.90
2023-05-19T14:18:58.555Z,99.90
2023-05-19T14:21:00.572Z,99.90
2023-05-19T14:23:03.030Z,99.90
2023-05-19T14:25:05.357Z,98.60
2023-05-19T14:27:07.275Z,92.80
2023-05-19T14:29:09.153Z,83.70
2023-05-19T14:31:14.925Z,86.80
2023-05-19T14:33:17.662Z,83.70
2023-05-19T14:35:19.661Z,81.40
2023-05-19T14:37:21.595Z,81.10
2023-05-19T14:39:23.506Z,78.60
2023-05-19T14:41:26.234Z,79.80
2023-05-19T14:43:28.271Z,80.20
2023-05-19T14:45:30.294Z,87.30
2023-05-19T14:47:32.289Z,86.60
2023-05-19T14:49:34.358Z,87.90
2023-05-19T14:51:36.487Z,88.10
2023-05-19T14:53:38.445Z,92.30
2023-05-19T14:55:40.866Z,92.40
2023-05-19T14:57:42.925Z,92.00
2023-05-19T14:59:44.781Z,94.40
2023-05-19T15:01:46.654Z,93.90
2023-05-19T15:03:48.654Z,94.40
2023-05-19T15:05:50.690Z,93.60
2023-05-19T15:07:52.615Z,93.60
2023-05-19T15:09:54.662Z,92.70
2023-05-19T15:11:56.616Z,92.30
2023-05-19T15:13:58.567Z,90.30
2023-05-19T15:16:15.623Z,88.90
2023-05-19T15:18:18.868Z,93.90
2023-05-19T15:20:20.975Z,84.90
2023-05-19T15:22:22.877Z,77.60
2023-05-19T15:24:24.855Z,84.20
2023-05-19T15:26:29.660Z,89.40
2023-05-19T15:28:32.333Z,88.50
2023-05-19T15:30:34.462Z,88.80
2023-05-19T15:32:36.545Z,90.20
2023-05-19T15:34:38.465Z,87.80
2023-05-19T15:36:40.359Z,83.10
2023-05-19T15:38:42.391Z,84.80
2023-05-19T15:40:44.336Z,90.30
2023-05-19T15:42:46.230Z,90.50
2023-05-19T15:44:48.232Z,89.40
2023-05-19T15:46:50.123Z,87.20
2023-05-19T15:48:52.676Z,85.50
2023-05-19T15:50:58.262Z,80.60
2023-05-19T15:53:00.242Z,86.60
2023-05-19T15:55:02.226Z,80.80
2023-05-19T15:57:04.261Z,80.80
2023-05-19T15:59:06.155Z,78.50
2023-05-19T16:01:08.627Z,80.40
2023-05-19T16:03:11.254Z,82.60
2023-05-19T16:05:13.198Z,81.00
2023-05-19T16:07:16.807Z,83.10
2023-05-19T16:09:18.769Z,80.40
2023-05-19T16:11:21.214Z,79.10
2023-05-19T16:13:23.310Z,76.50
2023-05-19T16:15:25.234Z,75.40
2023-05-19T16:17:27.248Z,74.20
2023-05-19T16:19:29.627Z,74.30
2023-05-19T16:21:32.317Z,71.80
2023-05-19T16:23:34.190Z,70.80
2023-05-19T16:25:36.135Z,69.50
2023-05-19T16:27:38.092Z,71.60
2023-05-19T16:29:39.996Z,71.10
2023-05-19T16:31:41.952Z,71.10
2023-05-19T16:33:43.916Z,71.60
2023-05-19T16:35:45.916Z,71.20
2023-05-19T16:37:47.870Z,71.20
2023-05-19T16:39:49.854Z,71.40
2023-05-19T16:41:52.881Z,71.20
2023-05-19T16:43:54.794Z,73.70
2023-05-19T16:45:57.226Z,77.60
2023-05-19T16:47:59.202Z,72.50
2023-05-19T16:50:01.284Z,72.30
2023-05-19T16:52:03.320Z,73.50
2023-05-19T16:54:05.398Z,73.30
2023-05-19T16:56:08.120Z,74.20
2023-05-19T16:58:11.692Z,72.90
2023-05-19T17:00:14.527Z,73.50
2023-05-19T17:02:16.564Z,73.70
2023-05-19T17:04:18.696Z,71.60
2023-05-19T17:06:20.722Z,73.00
2023-05-19T17:08:22.669Z,73.80
2023-05-19T17:10:24.631Z,74.60
2023-05-19T17:12:26.616Z,73.80
2023-05-19T17:14:28.527Z,75.10
2023-05-19T17:16:30.526Z,76.10
2023-05-19T17:18:32.518Z,75.20
2023-05-19T17:20:34.670Z,76.60
2023-05-19T17:22:37.147Z,76.50
2023-05-19T17:24:39.139Z,76.90
2023-05-19T17:26:41.254Z,78.30
2023-05-19T17:28:43.244Z,80.40
2023-05-19T17:30:45.160Z,79.70
2023-05-19T17:32:47.057Z,78.70
2023-05-19T17:34:49.095Z,85.60
2023-05-19T17:36:51.239Z,80.00
2023-05-19T17:38:53.170Z,84.20
2023-05-19T17:40:57.728Z,80.10
2023-05-19T17:42:59.620Z,81.40
2023-05-19T17:45:01.662Z,82.90
2023-05-19T17:47:03.801Z,80.80
2023-05-19T17:49:06.534Z,80.70
2023-05-19T17:51:08.508Z,80.40
2023-05-19T17:53:10.352Z,79.90
2023-05-19T17:55:12.873Z,79.70
2023-05-19T17:57:17.021Z,79.40
2023-05-19T17:59:19.360Z,79.70
2023-05-19T18:01:24.164Z,79.90
2023-05-19T18:03:26.584Z,79.40
2023-05-19T18:05:28.907Z,79.60
2023-05-19T18:07:38.374Z,80.50
2023-05-19T18:09:47.931Z,80.50
2023-05-19T18:11:49.910Z,80.40
2023-05-19T18:13:53.829Z,80.50
2023-05-19T18:15:57.108Z,80.50
2023-05-19T18:17:59.384Z,80.60
2023-05-19T18:20:01.583Z,81.30
2023-05-19T18:22:03.655Z,82.40
2023-05-19T18:24:06.022Z,81.60
2023-05-19T18:26:07.950Z,82.10
2023-05-19T18:28:09.748Z,82.20
2023-05-19T18:30:11.995Z,82.50
2023-05-19T18:32:16.861Z,83.00
2023-05-19T18:34:18.847Z,83.60
2023-05-19T18:36:21.116Z,83.40
2023-05-19T18:38:25.946Z,84.30
2023-05-19T18:40:27.921Z,84.20
2023-05-19T18:42:29.732Z,84.60
2023-05-19T18:44:33.885Z,84.90
2023-05-19T18:46:35.808Z,85.50
2023-05-19T18:48:37.826Z,85.00
2023-05-19T18:50:41.004Z,85.10
2023-05-19T18:52:42.883Z,85.30
2023-05-19T18:54:47.133Z,85.40
2023-05-19T18:56:49.056Z,85.40
2023-05-19T18:58:52.386Z,86.30
2023-05-19T19:00:57.428Z,86.00
2023-05-19T19:02:59.442Z,86.80
2023-05-19T19:05:03.919Z,86.90
2023-05-19T19:07:06.233Z,87.30
2023-05-19T19:09:08.547Z,87.00
2023-05-19T19:11:11.390Z,87.90
2023-05-19T19:13:13.386Z,87.50
2023-05-19T19:15:15.304Z,87.70
2023-05-19T19:17:18.134Z,87.00
2023-05-19T19:19:20.451Z,87.10
2023-05-19T19:21:24.174Z,87.30
2023-05-19T19:23:26.071Z,87.90
2023-05-19T19:25:28.093Z,87.70
2023-05-19T19:27:31.311Z,87.30
2023-05-19T19:29:33.202Z,87.30
2023-05-19T19:31:35.176Z,87.30
2023-05-19T19:33:37.000Z,87.20
2023-05-19T19:35:38.916Z,86.50
2023-05-19T19:37:40.851Z,86.80
2023-05-19T19:39:42.669Z,87.90
2023-05-19T19:41:44.616Z,87.80
2023-05-19T19:43:46.379Z,88.90
2023-05-19T19:45:48.262Z,89.50
2023-05-19T19:47:50.202Z,90.10
2023-05-19T19:49:52.172Z,90.30
2023-05-19T19:51:54.121Z,90.80
2023-05-19T19:53:56.060Z,90.50
2023-05-19T19:55:57.916Z,91.10
2023-05-19T19:57:59.804Z,91.30
2023-05-19T20:00:07.941Z,91.20
2023-05-19T20:02:10.251Z,91.80
2023-05-19T20:04:12.400Z,91.60
2023-05-19T20:06:14.621Z,92.30
2023-05-19T20:08:16.598Z,92.20
2023-05-19T20:10:18.779Z,92.60
2023-05-19T20:12:22.167Z,93.00
2023-05-19T20:14:24.190Z,93.20
2023-05-19T20:16:26.022Z,93.40
2023-05-19T20:18:29.906Z,93.20
2023-05-19T20:20:32.383Z,93.80
2023-05-19T20:22:34.356Z,93.40
2023-05-19T20:24:36.349Z,93.50
2023-05-19T20:26:38.270Z,93.70
2023-05-19T20:28:40.356Z,93.80
2023-05-19T20:30:42.816Z,94.10
2023-05-19T20:32:46.656Z,94.50
2023-05-19T20:34:48.710Z,95.00
2023-05-19T20:36:50.667Z,95.60
2023-05-19T20:38:53.132Z,95.70
2023-05-19T20:40:55.091Z,96.10
2023-05-19T20:42:57.257Z,96.60
2023-05-19T20:44:59.785Z,97.10
2023-05-19T20:47:01.751Z,97.40
2023-05-19T20:49:03.728Z,97.60
2023-05-19T20:51:05.773Z,97.80
2023-05-19T20:53:07.657Z,98.20
2023-05-19T20:55:09.742Z,98.50
2023-05-19T20:57:12.874Z,98.70
2023-05-19T20:59:14.780Z,99.00
2023-05-19T21:01:16.887Z,99.30
2023-05-19T21:03:19.011Z,99.60
2023-05-19T21:05:21.342Z,99.90
2023-05-19T21:07:23.200Z,99.90
2023-05-19T21:09:25.227Z,99.90
2023-05-19T21:11:27.005Z,99.90
2023-05-19T21:13:29.178Z,99.90
2023-05-19T21:15:31.283Z,99.90
2023-05-19T21:17:33.071Z,99.90
2023-05-19T21:19:37.141Z,99.90
2023-05-19T21:21:42.717Z,99.90
2023-05-19T21:23:44.633Z,99.90
2023-05-19T21:25:46.552Z,99.90
2023-05-19T21:27:48.549Z,99.90
2023-05-19T21:29:54.210Z,99.90
2023-05-19T21:31:56.309Z,99.90
2023-05-19T21:33:58.396Z,99.90
2023-05-19T21:36:00.513Z,99.90
2023-05-19T21:38:12.038Z,99.90
2023-05-19T21:40:24.353Z,99.90
2023-05-19T21:42:26.275Z,99.90
2023-05-19T21:44:28.139Z,99.90
2023-05-19T21:46:30.121Z,99.90
2023-05-19T21:48:31.918Z,99.90
2023-05-19T21:50:37.615Z,99.90
2023-05-19T21:52:39.571Z,99.90
2023-05-19T21:54:41.595Z,99.90
2023-05-19T21:56:43.419Z,99.90
2023-05-19T21:58:45.452Z,99.90
2023-05-19T22:00:51.057Z,99.90
2023-05-19T22:02:53.463Z,99.90
2023-05-19T22:04:55.481Z,99.90
2023-05-19T22:06:58.520Z,99.90
2023-05-19T22:09:02.306Z,99.90
2023-05-19T22:11:04.476Z,99.90
2023-05-19T22:13:06.377Z,99.90
2023-05-19T22:15:08.895Z,99.90
2023-05-19T22:17:10.832Z,99.90
2023-05-19T22:19:12.962Z,99.90
2023-05-19T22:21:14.951Z,99.90
2023-05-19T22:23:16.900Z,99.90
2023-05-19T22:25:18.813Z,99.90
2023-05-19T22:27:20.742Z,99.90
2023-05-19T22:29:22.672Z,99.90
2023-05-19T22:31:24.562Z,99.90
2023-05-19T22:33:26.444Z,99.90
2023-05-19T22:35:28.436Z,99.90
2023-05-19T22:37:30.365Z,99.90
2023-05-19T22:39:32.273Z,99.90
2023-05-19T22:41:35.082Z,99.90
2023-05-19T22:43:37.229Z,99.90
2023-05-19T22:45:39.464Z,99.90
2023-05-19T22:47:41.500Z,99.90
2023-05-19T22:49:43.473Z,99.90
2023-05-19T22:51:45.363Z,99.90
2023-05-19T22:53:48.608Z,99.90
2023-05-19T22:55:50.534Z,99.90
2023-05-19T22:57:52.435Z,99.90
2023-05-19T22:59:54.430Z,99.90
2023-05-19T23:01:56.238Z,99.90
2023-05-19T23:03:58.191Z,99.90
2023-05-19T23:06:00.163Z,99.90
2023-05-19T23:08:02.274Z,99.90
2023-05-19T23:10:06.118Z,99.90
2023-05-19T23:12:08.045Z,99.90
2023-05-19T23:14:09.932Z,99.90
2023-05-19T23:16:11.828Z,99.90
2023-05-19T23:18:15.188Z,99.90
2023-05-19T23:20:17.277Z,99.90
2023-05-19T23:22:19.495Z,99.90
2023-05-19T23:24:21.492Z,99.90
2023-05-19T23:26:23.387Z,99.90
2023-05-19T23:28:25.402Z,99.90
2023-05-19T23:30:28.774Z,99.90
2023-05-19T23:32:30.955Z,99.90
2023-05-19T23:34:32.892Z,99.90
2023-05-19T23:36:34.886Z,99.90
2023-05-19T23:38:37.487Z,99.90
2023-05-19T23:40:39.400Z,99.90
2023-05-19T23:42:41.444Z,99.90
2023-05-19T23:44:43.370Z,99.90
2023-05-19T23:46:45.303Z,99.90
2023-05-19T23:48:47.660Z,99.90
2023-05-19T23:50:49.576Z,99.90
2023-05-19T23:52:51.637Z,99.90
2023-05-19T23:54:53.575Z,99.90
2023-05-19T23:56:55.880Z,99.90
2023-05-19T23:58:57.962Z,99.90
